createdAt,value
2023-06-18T00:00:16.868Z,177.38
2023-06-18T00:01:16.926Z,177.64
2023-06-18T00:02:16.971Z,178.24
2023-06-18T00:03:17.043Z,180.13
2023-06-18T00:04:17.224Z,181.27
2023-06-18T00:05:17.206Z,184.21
2023-06-18T00:06:17.207Z,182.24
2023-06-18T00:07:17.256Z,180.24
2023-06-18T00:08:17.339Z,182.79
2023-06-18T00:09:17.380Z,186.53
2023-06-18T00:10:17.445Z,183.56
2023-06-18T00:11:17.502Z,185.82
2023-06-18T00:12:17.550Z,189.35
2023-06-18T00:13:17.576Z,188.12
2023-06-18T00:14:17.678Z,191.35
2023-06-18T00:15:17.691Z,193.38
2023-06-18T00:16:17.783Z,188.59
2023-06-18T00:17:17.795Z,191.75
2023-06-18T00:18:17.843Z,190.88
2023-06-18T00:19:17.887Z,192.31
2023-06-18T00:20:17.963Z,191.26
2023-06-18T00:21:17.972Z,189.21
2023-06-18T00:22:18.013Z,186.07
2023-06-18T00:23:18.070Z,190.48
2023-06-18T00:24:18.109Z,190.93
2023-06-18T00:25:18.149Z,194.23
2023-06-18T00:26:18.169Z,189.21
2023-06-18T00:27:18.229Z,191.68
2023-06-18T00:28:18.269Z,193.75
2023-06-18T00:29:18.341Z,190.23
2023-06-18T00:30:18.407Z,188.71
2023-06-18T00:31:18.428Z,190.59
2023-06-18T00:32:18.449Z,193.10
2023-06-18T00:33:18.474Z,187.28
2023-06-18T00:34:18.510Z,182.46
2023-06-18T00:35:18.512Z,184.15
2023-06-18T00:36:18.525Z,182.47
2023-06-18T00:37:18.554Z,181.79
2023-06-18T00:38:18.548Z,178.06
2023-06-18T00:39:18.584Z,175.92
2023-06-18T00:40:18.619Z,177.71
2023-06-18T00:41:18.623Z,178.13
2023-06-18T00:42:18.652Z,176.24
2023-06-18T00:43:18.650Z,176.21
2023-06-18T00:44:18.664Z,178.39
2023-06-18T00:45:18.717Z,173.64
2023-06-18T00:46:18.685Z,172.52
2023-06-18T00:47:18.730Z,177.51
2023-06-18T00:48:18.719Z,178.93
2023-06-18T00:49:18.703Z,179.38
2023-06-18T00:50:18.763Z,172.69
2023-06-18T00:51:18.723Z,170.98
2023-06-18T00:52:18.741Z,167.12
2023-06-18T00:53:18.753Z,157.61
2023-06-18T00:54:18.782Z,153.16
2023-06-18T00:55:18.815Z,150.89
2023-06-18T00:56:18.817Z,150.69
2023-06-18T00:57:18.843Z,149.96
2023-06-18T00:58:18.828Z,154.42
2023-06-18T00:59:18.864Z,151.34
2023-06-18T01:00:18.896Z,152.13
2023-06-18T01:01:18.878Z,156.43
2023-06-18T01:02:18.862Z,152.87
2023-06-18T01:03:18.980Z,149.38
2023-06-18T01:04:18.910Z,143.39
2023-06-18T01:05:18.897Z,145.22
2023-06-18T01:06:18.992Z,146.99
2023-06-18T01:07:22.358Z,152.46
2023-06-18T01:08:19.950Z,152.49
2023-06-18T01:09:18.947Z,152.68
2023-06-18T01:10:19.310Z,153.78
2023-06-18T01:11:18.926Z,154.25
2023-06-18T01:12:18.915Z,150.96
2023-06-18T01:13:18.898Z,151.88
2023-06-18T01:14:18.917Z,151.06
2023-06-18T01:15:18.901Z,148.86
2023-06-18T01:16:18.930Z,149.77
2023-06-18T01:17:18.889Z,147.75
2023-06-18T01:18:18.878Z,148.60
2023-06-18T01:19:18.861Z,149.56
2023-06-18T01:20:18.958Z,145.49
2023-06-18T01:21:18.855Z,141.67
2023-06-18T01:22:18.834Z,139.11
2023-06-18T01:23:18.838Z,140.60
2023-06-18T01:24:18.870Z,140.93
2023-06-18T01:25:18.873Z,141.14
2023-06-18T01:26:18.825Z,138.59
2023-06-18T01:27:18.815Z,132.19
2023-06-18T01:28:18.796Z,133.61
2023-06-18T01:29:18.799Z,131.17
2023-06-18T01:30:18.784Z,132.05
2023-06-18T01:31:18.766Z,132.31
2023-06-18T01:32:18.786Z,130.73
2023-06-18T01:33:18.779Z,128.31
2023-06-18T01:34:18.758Z,127.27
2023-06-18T01:35:18.736Z,125.63
2023-06-18T01:36:18.743Z,123.76
2023-06-18T01:37:18.725Z,122.29
2023-06-18T01:38:18.719Z,118.62
2023-06-18T01:39:18.706Z,116.96
2023-06-18T01:40:18.733Z,114.17
2023-06-18T01:41:18.698Z,113.32
2023-06-18T01:42:18.693Z,115.85
2023-06-18T01:43:18.695Z,115.83
2023-06-18T01:44:18.685Z,114.27
2023-06-18T01:45:18.697Z,115.87
2023-06-18T01:46:18.759Z,119.14
2023-06-18T01:47:18.667Z,120.22
2023-06-18T01:48:18.652Z,122.29
2023-06-18T01:49:18.671Z,117.98
2023-06-18T01:50:18.666Z,120.41
2023-06-18T01:51:18.630Z,124.97
2023-06-18T01:52:18.642Z,118.08
2023-06-18T01:53:18.636Z,114.34
2023-06-18T01:54:18.620Z,106.30
2023-06-18T01:55:18.620Z,108.07
2023-06-18T01:56:18.591Z,109.21
2023-06-18T01:57:18.584Z,106.43
2023-06-18T01:58:18.586Z,107.88
2023-06-18T01:59:18.564Z,108.10
2023-06-18T02:00:18.644Z,100.43
2023-06-18T02:01:18.547Z,103.19
2023-06-18T02:02:18.613Z,103.16
2023-06-18T02:03:18.579Z,109.18
2023-06-18T02:04:18.529Z,109.54
2023-06-18T02:05:18.525Z,107.47
2023-06-18T02:06:18.509Z,110.52
2023-06-18T02:07:18.505Z,111.82
2023-06-18T02:08:18.501Z,108.95
2023-06-18T02:09:18.510Z,112.44
2023-06-18T02:10:18.507Z,115.71
2023-06-18T02:11:18.491Z,118.48
2023-06-18T02:12:18.490Z,118.22
2023-06-18T02:13:18.488Z,118.25
2023-06-18T02:14:18.509Z,117.02
2023-06-18T02:15:18.515Z,122.78
2023-06-18T02:16:18.525Z,123.61
2023-06-18T02:17:18.494Z,124.28
2023-06-18T02:18:18.501Z,126.14
2023-06-18T02:19:18.532Z,126.71
2023-06-18T02:20:18.537Z,126.82
2023-06-18T02:21:18.525Z,125.90
2023-06-18T02:22:18.513Z,126.77
2023-06-18T02:23:18.524Z,124.44
2023-06-18T02:24:18.538Z,121.46
2023-06-18T02:25:18.541Z,124.18
2023-06-18T02:26:18.534Z,126.63
2023-06-18T02:27:18.535Z,125.14
2023-06-18T02:28:18.536Z,119.57
2023-06-18T02:29:18.552Z,120.69
2023-06-18T02:30:18.549Z,127.00
2023-06-18T02:31:18.569Z,128.80
2023-06-18T02:32:18.570Z,131.15
2023-06-18T02:33:18.571Z,133.35
2023-06-18T02:34:18.576Z,141.06
2023-06-18T02:35:18.604Z,141.87
2023-06-18T02:36:18.655Z,144.12
2023-06-18T02:37:18.597Z,141.39
2023-06-18T02:38:18.601Z,145.25
2023-06-18T02:39:18.623Z,151.01
2023-06-18T02:40:18.649Z,148.51
2023-06-18T02:41:18.624Z,146.67
2023-06-18T02:42:18.642Z,143.94
2023-06-18T02:43:18.654Z,146.47
2023-06-18T02:44:18.657Z,144.96
2023-06-18T02:45:18.675Z,146.24
2023-06-18T02:46:18.708Z,146.53
2023-06-18T02:47:18.669Z,143.98
2023-06-18T02:48:18.699Z,142.35
2023-06-18T02:49:18.684Z,142.05
2023-06-18T02:50:18.755Z,143.84
2023-06-18T02:51:18.733Z,147.60
2023-06-18T02:52:18.728Z,148.69
2023-06-18T02:53:18.732Z,149.15
2023-06-18T02:54:18.757Z,144.28
2023-06-18T02:55:18.733Z,146.13
2023-06-18T02:56:18.753Z,145.95
2023-06-18T02:57:18.760Z,144.38
2023-06-18T02:58:18.756Z,149.90
2023-06-18T02:59:18.767Z,146.95
2023-06-18T03:00:18.930Z,142.18
2023-06-18T03:01:18.876Z,141.19
2023-06-18T03:02:18.767Z,146.00
2023-06-18T03:03:18.774Z,143.33
2023-06-18T03:04:18.781Z,135.47
2023-06-18T03:05:18.949Z,132.44
2023-06-18T03:06:18.791Z,132.56
2023-06-18T03:07:18.804Z,136.28
2023-06-18T03:08:18.804Z,134.55
2023-06-18T03:09:18.844Z,135.65
2023-06-18T03:10:18.865Z,136.08
2023-06-18T03:11:18.848Z,137.65
2023-06-18T03:12:18.845Z,143.22
2023-06-18T03:13:18.857Z,141.48
2023-06-18T03:14:18.855Z,139.80
2023-06-18T03:15:18.869Z,140.16
2023-06-18T03:16:18.904Z,140.29
2023-06-18T03:17:18.883Z,138.76
2023-06-18T03:18:18.888Z,136.84
2023-06-18T03:19:18.900Z,138.27
2023-06-18T03:20:19.577Z,139.15
2023-06-18T03:21:18.913Z,140.87
2023-06-18T03:22:18.924Z,138.01
2023-06-18T03:23:18.940Z,135.50
2023-06-18T03:24:18.976Z,135.24
2023-06-18T03:25:18.937Z,133.70
2023-06-18T03:26:18.934Z,131.47
2023-06-18T03:27:18.956Z,129.66
2023-06-18T03:28:19.002Z,127.80
2023-06-18T03:29:18.971Z,127.02
2023-06-18T03:30:19.029Z,126.76
2023-06-18T03:31:18.991Z,124.69
2023-06-18T03:32:19.004Z,127.19
2023-06-18T03:33:19.150Z,125.93
2023-06-18T03:34:20.565Z,128.89
2023-06-18T03:35:19.025Z,130.34
2023-06-18T03:36:19.030Z,127.54
2023-06-18T03:37:19.027Z,130.11
2023-06-18T03:38:19.045Z,129.09
2023-06-18T03:39:19.049Z,123.93
2023-06-18T03:40:19.089Z,125.17
2023-06-18T03:41:19.095Z,125.61
2023-06-18T03:42:19.102Z,129.18
2023-06-18T03:43:19.075Z,129.92
2023-06-18T03:44:19.076Z,130.07
2023-06-18T03:45:19.082Z,133.14
2023-06-18T03:46:19.177Z,133.28
2023-06-18T03:47:19.107Z,133.68
2023-06-18T03:48:19.105Z,133.81
2023-06-18T03:49:19.110Z,130.74
2023-06-18T03:50:19.227Z,130.86
2023-06-18T03:51:19.123Z,132.64
2023-06-18T03:52:19.149Z,131.55
2023-06-18T03:53:19.139Z,128.54
2023-06-18T03:54:19.196Z,131.95
2023-06-18T03:55:19.165Z,134.18
2023-06-18T03:56:19.184Z,131.44
2023-06-18T03:57:19.165Z,135.76
2023-06-18T03:58:19.203Z,140.17
2023-06-18T03:59:19.163Z,143.31
2023-06-18T04:00:19.225Z,143.30
2023-06-18T04:01:19.218Z,139.40
2023-06-18T04:02:19.207Z,137.90
2023-06-18T04:03:19.317Z,139.92
2023-06-18T04:04:19.188Z,141.51
2023-06-18T04:05:19.204Z,141.70
2023-06-18T04:06:19.180Z,142.45
2023-06-18T04:07:19.189Z,144.35
2023-06-18T04:08:19.214Z,151.36
2023-06-18T04:09:20.453Z,151.65
2023-06-18T04:10:19.275Z,150.27
2023-06-18T04:11:19.201Z,154.96
2023-06-18T04:12:19.197Z,157.38
2023-06-18T04:13:19.197Z,151.92
2023-06-18T04:14:19.177Z,160.75
2023-06-18T04:15:19.196Z,162.81
2023-06-18T04:16:19.226Z,166.98
2023-06-18T04:17:19.180Z,172.49
2023-06-18T04:18:19.183Z,170.96
2023-06-18T04:19:19.192Z,171.14
2023-06-18T04:20:19.251Z,169.42
2023-06-18T04:21:19.186Z,177.54
2023-06-18T04:22:19.173Z,175.25
2023-06-18T04:23:19.173Z,178.84
2023-06-18T04:24:19.257Z,178.40
2023-06-18T04:25:19.179Z,178.64
2023-06-18T04:26:19.177Z,184.86
2023-06-18T04:27:19.209Z,183.61
2023-06-18T04:28:19.188Z,183.54
2023-06-18T04:29:19.203Z,186.05
2023-06-18T04:30:19.207Z,186.00
2023-06-18T04:31:19.210Z,190.64
2023-06-18T04:32:19.223Z,186.02
2023-06-18T04:33:19.230Z,188.70
2023-06-18T04:34:19.261Z,198.26
2023-06-18T04:35:19.318Z,199.13
2023-06-18T04:36:19.360Z,202.66
2023-06-18T04:37:19.359Z,207.31
2023-06-18T04:38:19.394Z,210.65
2023-06-18T04:39:19.439Z,208.13
2023-06-18T04:40:19.686Z,209.25
2023-06-18T04:41:19.537Z,204.20
2023-06-18T04:42:19.592Z,193.84
2023-06-18T04:43:19.649Z,197.19
2023-06-18T04:44:19.674Z,191.96
2023-06-18T04:45:19.706Z,190.87
2023-06-18T04:46:19.739Z,185.61
2023-06-18T04:47:19.730Z,186.31
2023-06-18T04:48:19.779Z,183.88
2023-06-18T04:49:19.757Z,181.06
2023-06-18T04:50:19.838Z,179.31
2023-06-18T04:51:19.775Z,175.67
2023-06-18T04:52:19.845Z,177.41
2023-06-18T04:53:19.892Z,173.22
2023-06-18T04:54:19.925Z,171.93
2023-06-18T04:55:20.008Z,174.43
2023-06-18T04:56:20.021Z,173.14
2023-06-18T04:57:20.053Z,161.99
2023-06-18T04:58:20.069Z,159.69
2023-06-18T04:59:22.054Z,159.83
2023-06-18T05:00:20.212Z,148.28
2023-06-18T05:01:20.103Z,137.50
2023-06-18T05:02:20.079Z,136.98
2023-06-18T05:03:20.193Z,137.53
2023-06-18T05:04:20.200Z,130.97
2023-06-18T05:05:20.062Z,122.50
2023-06-18T05:06:20.072Z,108.13
2023-06-18T05:07:20.062Z,107.89
2023-06-18T05:08:20.052Z,111.65
2023-06-18T05:09:20.046Z,111.03
2023-06-18T05:10:20.102Z,110.63
2023-06-18T05:11:20.037Z,111.67
2023-06-18T05:12:20.018Z,117.75
2023-06-18T05:13:20.025Z,117.52
2023-06-18T05:14:19.995Z,122.30
2023-06-18T05:15:20.007Z,122.40
2023-06-18T05:16:20.004Z,122.39
2023-06-18T05:17:19.975Z,117.56
2023-06-18T05:18:19.971Z,112.19
2023-06-18T05:19:19.981Z,111.70
2023-06-18T05:20:20.234Z,113.31
2023-06-18T05:21:19.977Z,114.60
2023-06-18T05:22:19.946Z,118.18
2023-06-18T05:23:19.976Z,117.84
2023-06-18T05:24:19.983Z,116.85
2023-06-18T05:25:19.954Z,121.38
2023-06-18T05:26:19.947Z,126.58
2023-06-18T05:27:19.917Z,126.71
2023-06-18T05:28:19.925Z,130.97
2023-06-18T05:29:19.933Z,132.03
2023-06-18T05:30:20.030Z,130.39
2023-06-18T05:31:19.920Z,135.49
2023-06-18T05:32:19.896Z,136.55
2023-06-18T05:33:19.888Z,134.65
2023-06-18T05:34:19.894Z,135.26
2023-06-18T05:35:19.891Z,137.12
2023-06-18T05:36:19.869Z,139.18
2023-06-18T05:37:19.888Z,132.66
2023-06-18T05:38:19.881Z,133.76
2023-06-18T05:39:19.867Z,131.24
2023-06-18T05:40:19.871Z,131.88
2023-06-18T05:41:19.868Z,130.27
2023-06-18T05:42:19.838Z,132.81
2023-06-18T05:43:19.833Z,131.58
2023-06-18T05:44:19.849Z,127.97
2023-06-18T05:45:19.873Z,131.83
2023-06-18T05:46:19.879Z,131.39
2023-06-18T05:47:19.841Z,134.03
2023-06-18T05:48:19.812Z,133.61
2023-06-18T05:49:19.804Z,130.50
2023-06-18T05:50:19.982Z,130.36
2023-06-18T05:51:19.786Z,131.92
2023-06-18T05:52:19.764Z,129.21
2023-06-18T05:53:19.757Z,130.56
2023-06-18T05:54:19.764Z,133.99
2023-06-18T05:55:19.751Z,133.94
2023-06-18T05:56:19.771Z,122.60
2023-06-18T05:57:19.728Z,127.04
2023-06-18T05:58:19.723Z,120.19
2023-06-18T05:59:19.742Z,115.85
2023-06-18T06:00:19.846Z,116.47
2023-06-18T06:01:19.821Z,110.26
2023-06-18T06:02:19.782Z,108.23
2023-06-18T06:03:19.790Z,106.95
2023-06-18T06:04:19.849Z,102.46
2023-06-18T06:05:19.807Z,99.30
2023-06-18T06:06:19.783Z,99.27
2023-06-18T06:07:19.814Z,93.76
2023-06-18T06:08:19.805Z,85.86
2023-06-18T06:09:19.892Z,79.76
2023-06-18T06:10:20.063Z,74.56
2023-06-18T06:11:20.003Z,71.54
2023-06-18T06:12:20.052Z,70.72
2023-06-18T06:13:20.098Z,59.87
2023-06-18T06:14:20.165Z,62.38
2023-06-18T06:15:20.256Z,60.44
2023-06-18T06:16:20.355Z,67.94
2023-06-18T06:17:20.365Z,72.71
2023-06-18T06:18:20.367Z,69.78
2023-06-18T06:19:20.370Z,71.42
2023-06-18T06:20:20.501Z,71.86
2023-06-18T06:21:20.425Z,69.13
2023-06-18T06:22:20.461Z,70.58
2023-06-18T06:23:20.502Z,70.67
2023-06-18T06:24:20.612Z,68.04
2023-06-18T06:25:20.579Z,72.49
2023-06-18T06:26:20.582Z,62.86
2023-06-18T06:27:20.615Z,54.66
2023-06-18T06:28:20.615Z,62.54
2023-06-18T06:29:20.642Z,62.65
2023-06-18T06:30:21.018Z,63.86
2023-06-18T06:31:20.741Z,53.98
2023-06-18T06:32:20.774Z,52.29
2023-06-18T06:33:20.844Z,37.49
2023-06-18T06:34:20.934Z,37.55
2023-06-18T06:35:20.969Z,29.42
2023-06-18T06:36:21.063Z,36.77
2023-06-18T06:37:21.074Z,37.47
2023-06-18T06:38:21.164Z,31.67
2023-06-18T06:39:21.178Z,30.13
2023-06-18T06:40:21.434Z,29.58
2023-06-18T06:41:21.241Z,28.79
2023-06-18T06:42:21.273Z,25.00
2023-06-18T06:43:21.286Z,25.58
2023-06-18T06:44:21.270Z,25.13
2023-06-18T06:45:21.295Z,25.43
2023-06-18T06:46:21.360Z,25.00
2023-06-18T06:47:21.295Z,25.25
2023-06-18T06:48:21.284Z,25.00
2023-06-18T06:49:21.286Z,25.00
2023-06-18T06:50:21.491Z,25.00
2023-06-18T06:51:21.309Z,26.29
2023-06-18T06:52:21.365Z,25.52
2023-06-18T06:53:21.333Z,25.71
2023-06-18T06:54:21.355Z,25.42
2023-06-18T06:55:21.357Z,26.37
2023-06-18T06:56:21.529Z,25.49
2023-06-18T06:57:21.375Z,25.95
2023-06-18T06:58:21.385Z,26.81
2023-06-18T06:59:21.387Z,26.67
2023-06-18T07:00:21.709Z,28.07
2023-06-18T07:01:21.473Z,25.00
2023-06-18T07:02:21.532Z,25.00
2023-06-18T07:03:21.538Z,25.94
2023-06-18T07:04:21.476Z,26.78
2023-06-18T07:05:21.484Z,26.93
2023-06-18T07:06:21.523Z,26.16
2023-06-18T07:07:21.543Z,30.85
2023-06-18T07:08:21.564Z,27.29
2023-06-18T07:09:21.589Z,25.00
2023-06-18T07:10:21.883Z,27.46
2023-06-18T07:11:21.638Z,25.00
2023-06-18T07:12:22.502Z,26.13
2023-06-18T07:13:21.692Z,26.26
2023-06-18T07:14:21.734Z,25.00
2023-06-18T07:15:21.733Z,25.00
2023-06-18T07:16:21.800Z,25.39
2023-06-18T07:17:21.835Z,25.00
2023-06-18T07:18:21.797Z,27.06
2023-06-18T07:19:21.831Z,25.00
2023-06-18T07:20:22.096Z,25.00
2023-06-18T07:21:21.914Z,25.73
2023-06-18T07:22:21.947Z,25.00
2023-06-18T07:23:21.952Z,27.40
2023-06-18T07:24:22.027Z,26.09
2023-06-18T07:25:22.008Z,28.91
2023-06-18T07:26:22.041Z,29.80
2023-06-18T07:27:22.094Z,27.30
2023-06-18T07:28:22.102Z,32.72
2023-06-18T07:29:22.132Z,37.29
2023-06-18T07:30:22.402Z,35.21
2023-06-18T07:31:22.210Z,34.32
2023-06-18T07:32:22.267Z,43.04
2023-06-18T07:33:22.258Z,37.47
2023-06-18T07:34:22.297Z,38.97
2023-06-18T07:35:22.356Z,44.87
2023-06-18T07:36:22.359Z,50.90
2023-06-18T07:37:22.394Z,43.65
2023-06-18T07:38:22.410Z,47.19
2023-06-18T07:39:22.879Z,60.33
2023-06-18T07:40:22.852Z,65.23
2023-06-18T07:41:22.523Z,71.77
2023-06-18T07:42:22.557Z,74.49
2023-06-18T07:43:22.578Z,73.51
2023-06-18T07:44:22.593Z,73.02
2023-06-18T07:45:22.642Z,79.99
2023-06-18T07:46:22.791Z,90.04
2023-06-18T07:47:22.707Z,86.02
2023-06-18T07:48:22.730Z,84.84
2023-06-18T07:49:22.752Z,81.73
2023-06-18T07:50:22.990Z,81.02
2023-06-18T07:51:22.830Z,85.29
2023-06-18T07:52:22.863Z,93.30
2023-06-18T07:53:22.901Z,100.87
2023-06-18T07:54:22.927Z,99.73
2023-06-18T07:55:22.961Z,104.52
2023-06-18T07:56:23.070Z,102.76
2023-06-18T07:57:23.024Z,107.02
2023-06-18T07:58:23.062Z,107.79
2023-06-18T07:59:23.086Z,103.81
2023-06-18T08:00:23.405Z,110.54
2023-06-18T08:01:23.178Z,109.22
2023-06-18T08:02:23.196Z,108.59
2023-06-18T08:03:23.241Z,106.55
2023-06-18T08:04:23.306Z,107.99
2023-06-18T08:05:23.308Z,118.35
2023-06-18T08:06:23.325Z,114.31
2023-06-18T08:07:23.354Z,120.54
2023-06-18T08:08:23.406Z,124.90
2023-06-18T08:09:23.413Z,123.66
2023-06-18T08:10:23.614Z,120.77
2023-06-18T08:11:23.494Z,119.94
2023-06-18T08:12:23.530Z,110.03
2023-06-18T08:13:23.558Z,119.11
2023-06-18T08:14:23.581Z,119.12
2023-06-18T08:15:23.629Z,126.05
2023-06-18T08:16:23.716Z,128.75
2023-06-18T08:17:23.729Z,127.90
2023-06-18T08:18:23.771Z,114.72
2023-06-18T08:19:23.769Z,115.62
2023-06-18T08:20:23.989Z,111.62
2023-06-18T08:21:23.826Z,120.70
2023-06-18T08:22:23.884Z,125.17
2023-06-18T08:23:23.919Z,124.72
2023-06-18T08:24:23.977Z,117.54
2023-06-18T08:25:23.990Z,111.60
2023-06-18T08:26:24.045Z,112.20
2023-06-18T08:27:24.041Z,118.81
2023-06-18T08:28:24.088Z,119.57
2023-06-18T08:29:24.121Z,115.72
2023-06-18T08:30:24.380Z,122.62
2023-06-18T08:31:24.176Z,131.38
2023-06-18T08:32:24.299Z,122.26
2023-06-18T08:33:24.254Z,122.57
2023-06-18T08:34:24.276Z,127.76
2023-06-18T08:35:24.326Z,127.51
2023-06-18T08:36:24.336Z,124.24
2023-06-18T08:37:24.380Z,119.36
2023-06-18T08:38:24.417Z,122.83
2023-06-18T08:39:24.456Z,119.33
2023-06-18T08:40:24.611Z,129.54
2023-06-18T08:41:24.507Z,127.42
2023-06-18T08:42:24.547Z,127.47
2023-06-18T08:43:24.611Z,121.80
2023-06-18T08:44:24.629Z,119.95
2023-06-18T08:45:24.651Z,124.03
2023-06-18T08:46:24.751Z,123.99
2023-06-18T08:47:24.761Z,118.91
2023-06-18T08:48:30.093Z,125.29
2023-06-18T08:49:25.757Z,125.05
2023-06-18T08:50:25.015Z,125.37
2023-06-18T08:51:24.753Z,121.63
2023-06-18T08:52:24.736Z,118.00
2023-06-18T08:53:24.758Z,112.41
2023-06-18T08:54:24.723Z,110.57
2023-06-18T08:55:24.737Z,102.58
2023-06-18T08:56:24.716Z,107.70
2023-06-18T08:57:24.710Z,106.66
2023-06-18T08:58:24.716Z,109.49
2023-06-18T08:59:24.694Z,112.96
2023-06-18T09:00:25.057Z,114.41
2023-06-18T09:01:24.756Z,115.65
2023-06-18T09:02:24.955Z,113.73
2023-06-18T09:03:24.889Z,105.59
2023-06-18T09:04:24.915Z,106.91
2023-06-18T09:05:25.198Z,103.95
2023-06-18T09:06:25.006Z,109.45
2023-06-18T09:07:25.053Z,114.79
2023-06-18T09:08:25.125Z,116.68
2023-06-18T09:09:25.190Z,117.61
2023-06-18T09:10:25.230Z,108.91
2023-06-18T09:11:27.577Z,106.05
2023-06-18T09:12:25.272Z,102.32
2023-06-18T09:13:25.272Z,108.42
2023-06-18T09:14:25.262Z,98.68
2023-06-18T09:15:25.383Z,99.48
2023-06-18T09:16:25.272Z,98.42
2023-06-18T09:17:25.287Z,101.03
2023-06-18T09:18:25.221Z,96.31
2023-06-18T09:19:25.223Z,96.40
2023-06-18T09:20:25.213Z,92.06
2023-06-18T09:21:25.195Z,90.67
2023-06-18T09:22:25.189Z,87.18
2023-06-18T09:23:25.203Z,83.44
2023-06-18T09:24:25.213Z,80.20
2023-06-18T09:25:25.401Z,79.31
2023-06-18T09:26:25.185Z,73.62
2023-06-18T09:27:25.187Z,77.90
2023-06-18T09:28:25.168Z,89.52
2023-06-18T09:29:25.139Z,85.18
2023-06-18T09:30:25.170Z,83.40
2023-06-18T09:31:25.125Z,77.69
2023-06-18T09:32:25.147Z,70.47
2023-06-18T09:33:25.130Z,70.84
2023-06-18T09:34:25.121Z,70.81
2023-06-18T09:35:25.320Z,71.71
2023-06-18T09:36:25.212Z,75.21
2023-06-18T09:37:25.257Z,71.27
2023-06-18T09:38:25.313Z,76.81
2023-06-18T09:39:25.409Z,78.70
2023-06-18T09:40:25.438Z,75.48
2023-06-18T09:41:25.478Z,67.69
2023-06-18T09:42:25.524Z,65.26
2023-06-18T09:43:25.621Z,64.10
2023-06-18T09:44:25.695Z,63.44
2023-06-18T09:45:25.849Z,68.69
2023-06-18T09:46:25.909Z,71.00
2023-06-18T09:47:25.964Z,65.04
2023-06-18T09:48:26.068Z,63.13
2023-06-18T09:49:26.090Z,60.74
2023-06-18T09:50:28.534Z,58.52
2023-06-18T09:51:26.145Z,55.63
2023-06-18T09:52:26.154Z,49.85
2023-06-18T09:53:26.150Z,47.27
2023-06-18T09:54:26.142Z,51.46
2023-06-18T09:55:26.138Z,53.83
2023-06-18T09:56:26.136Z,48.52
2023-06-18T09:57:26.144Z,47.26
2023-06-18T09:58:26.124Z,45.90
2023-06-18T09:59:26.116Z,47.03
2023-06-18T10:00:26.091Z,48.17
2023-06-18T10:01:26.136Z,49.55
2023-06-18T10:02:26.253Z,46.59
2023-06-18T10:03:26.111Z,46.16
2023-06-18T10:04:26.081Z,52.36
2023-06-18T10:05:26.083Z,57.92
2023-06-18T10:06:26.085Z,54.49
2023-06-18T10:07:26.048Z,48.16
2023-06-18T10:08:26.039Z,47.58
2023-06-18T10:09:26.036Z,49.17
2023-06-18T10:10:26.048Z,48.78
2023-06-18T10:11:26.041Z,50.03
2023-06-18T10:12:26.024Z,46.60
2023-06-18T10:13:26.014Z,49.83
2023-06-18T10:14:26.030Z,58.37
2023-06-18T10:15:26.013Z,63.14
2023-06-18T10:16:25.994Z,62.47
2023-06-18T10:17:26.047Z,54.75
2023-06-18T10:18:25.999Z,51.72
2023-06-18T10:19:25.976Z,43.83
2023-06-18T10:20:25.999Z,40.39
2023-06-18T10:21:25.970Z,39.24
2023-06-18T10:22:25.971Z,37.34
2023-06-18T10:23:25.961Z,41.89
2023-06-18T10:24:25.984Z,47.40
2023-06-18T10:25:25.939Z,54.38
2023-06-18T10:26:25.923Z,50.87
2023-06-18T10:27:25.927Z,47.84
2023-06-18T10:28:25.912Z,48.89
2023-06-18T10:29:25.909Z,49.60
2023-06-18T10:30:25.913Z,50.98
2023-06-18T10:31:25.906Z,53.79
2023-06-18T10:32:25.943Z,52.53
2023-06-18T10:33:25.876Z,51.91
2023-06-18T10:34:25.882Z,58.93
2023-06-18T10:35:26.206Z,59.84
2023-06-18T10:36:25.849Z,51.80
2023-06-18T10:37:25.852Z,49.09
2023-06-18T10:38:25.854Z,49.46
2023-06-18T10:39:25.963Z,50.54
2023-06-18T10:40:25.822Z,48.33
2023-06-18T10:41:25.824Z,38.95
2023-06-18T10:42:25.806Z,44.93
2023-06-18T10:43:25.802Z,53.71
2023-06-18T10:44:25.788Z,53.11
2023-06-18T10:45:25.884Z,55.37
2023-06-18T10:46:25.848Z,52.08
2023-06-18T10:47:25.910Z,52.88
2023-06-18T10:48:25.763Z,44.44
2023-06-18T10:49:25.762Z,42.17
2023-06-18T10:50:26.127Z,42.25
2023-06-18T10:51:25.761Z,45.47
2023-06-18T10:52:27.721Z,52.44
2023-06-18T10:53:25.736Z,52.67
2023-06-18T10:54:25.723Z,52.89
2023-06-18T10:55:27.990Z,51.97
2023-06-18T10:56:25.723Z,52.65
2023-06-18T10:57:25.706Z,53.54
2023-06-18T10:58:25.735Z,56.75
2023-06-18T10:59:25.695Z,62.53
2023-06-18T11:00:25.688Z,64.77
2023-06-18T11:01:25.696Z,58.48
2023-06-18T11:02:25.716Z,59.70
2023-06-18T11:03:25.836Z,57.95
2023-06-18T11:04:25.674Z,61.68
2023-06-18T11:05:25.666Z,64.22
2023-06-18T11:06:25.646Z,61.39
2023-06-18T11:07:25.654Z,67.95
2023-06-18T11:08:25.634Z,73.22
2023-06-18T11:09:25.640Z,76.57
2023-06-18T11:10:25.623Z,68.11
2023-06-18T11:11:25.618Z,65.61
2023-06-18T11:12:25.621Z,72.72
2023-06-18T11:13:25.603Z,75.23
2023-06-18T11:14:25.602Z,72.36
2023-06-18T11:15:25.790Z,75.99
2023-06-18T11:16:25.602Z,77.74
2023-06-18T11:17:25.652Z,74.84
2023-06-18T11:18:25.569Z,80.44
2023-06-18T11:19:25.628Z,75.54
2023-06-18T11:20:25.554Z,72.83
2023-06-18T11:21:25.570Z,76.93
2023-06-18T11:22:25.550Z,78.06
2023-06-18T11:23:25.552Z,78.14
2023-06-18T11:24:25.597Z,80.22
2023-06-18T11:25:25.556Z,79.56
2023-06-18T11:26:25.540Z,77.96
2023-06-18T11:27:25.545Z,77.29
2023-06-18T11:28:25.523Z,79.20
2023-06-18T11:29:25.496Z,78.24
2023-06-18T11:30:25.578Z,78.86
2023-06-18T11:31:25.492Z,79.38
2023-06-18T11:32:25.634Z,83.97
2023-06-18T11:33:25.599Z,82.54
2023-06-18T11:34:25.491Z,79.27
2023-06-18T11:35:25.672Z,82.90
2023-06-18T11:36:25.454Z,83.54
2023-06-18T11:37:25.449Z,87.93
2023-06-18T11:38:25.451Z,90.88
2023-06-18T11:39:25.459Z,89.31
2023-06-18T11:40:25.428Z,95.93
2023-06-18T11:41:25.426Z,96.83
2023-06-18T11:42:25.414Z,92.73
2023-06-18T11:43:25.421Z,92.34
2023-06-18T11:44:25.407Z,89.66
2023-06-18T11:45:25.652Z,91.89
2023-06-18T11:46:25.439Z,92.40
2023-06-18T11:47:25.393Z,92.24
2023-06-18T11:48:25.370Z,86.73
2023-06-18T11:49:25.387Z,88.64
2023-06-18T11:50:25.378Z,90.93
2023-06-18T11:51:25.364Z,84.85
2023-06-18T11:52:25.338Z,86.58
2023-06-18T11:53:25.345Z,91.93
2023-06-18T11:54:25.348Z,93.72
2023-06-18T11:55:25.582Z,97.17
2023-06-18T11:56:25.317Z,90.48
2023-06-18T11:57:25.326Z,91.78
2023-06-18T11:58:25.313Z,94.52
2023-06-18T11:59:25.313Z,97.73
2023-06-18T12:00:25.317Z,102.13
2023-06-18T12:01:25.320Z,103.24
2023-06-18T12:02:25.356Z,101.66
2023-06-18T12:03:25.299Z,89.80
2023-06-18T12:04:25.374Z,92.61
2023-06-18T12:05:25.441Z,93.04
2023-06-18T12:06:25.272Z,95.88
2023-06-18T12:07:25.265Z,98.18
2023-06-18T12:08:25.243Z,99.00
2023-06-18T12:09:25.236Z,92.89
2023-06-18T12:10:25.234Z,87.50
2023-06-18T12:11:25.227Z,92.47
2023-06-18T12:12:25.213Z,91.08
2023-06-18T12:13:25.221Z,91.14
2023-06-18T12:14:25.229Z,92.88
2023-06-18T12:15:25.416Z,96.57
2023-06-18T12:16:25.244Z,95.62
2023-06-18T12:17:25.199Z,93.28
2023-06-18T12:18:25.204Z,101.32
2023-06-18T12:19:25.177Z,102.53
2023-06-18T12:20:25.185Z,105.49
2023-06-18T12:21:25.163Z,102.06
2023-06-18T12:22:25.158Z,96.95
2023-06-18T12:23:25.163Z,96.15
2023-06-18T12:24:25.194Z,90.24
2023-06-18T12:25:25.201Z,88.25
2023-06-18T12:26:25.144Z,85.80
2023-06-18T12:27:25.129Z,82.13
2023-06-18T12:28:25.132Z,75.37
2023-06-18T12:29:25.127Z,80.14
2023-06-18T12:30:25.103Z,83.79
2023-06-18T12:31:25.125Z,89.12
2023-06-18T12:32:25.158Z,87.42
2023-06-18T12:33:25.085Z,88.11
2023-06-18T12:34:25.124Z,86.54
2023-06-18T12:35:25.254Z,87.52
2023-06-18T12:36:25.167Z,86.07
2023-06-18T12:37:25.185Z,82.10
2023-06-18T12:38:25.191Z,72.23